createdAt,value
2023-04-23T00:00:02.897Z,15.20
2023-04-23T00:01:02.856Z,15.20
2023-04-23T00:02:02.937Z,15.20
2023-04-23T00:03:03.059Z,15.20
2023-04-23T00:04:03.155Z,15.20
2023-04-23T00:05:03.069Z,15.20
2023-04-23T00:06:03.124Z,15.20
2023-04-23T00:07:03.270Z,15.20
2023-04-23T00:08:03.233Z,15.20
2023-04-23T00:09:03.263Z,15.10
2023-04-23T00:10:03.610Z,15.10
2023-04-23T00:11:03.609Z,15.10
2023-04-23T00:12:03.540Z,15.10
2023-04-23T00:13:02.660Z,15.10
2023-04-23T00:14:02.691Z,15.10
2023-04-23T00:15:02.712Z,15.10
2023-04-23T00:16:02.687Z,15.10
2023-04-23T00:17:02.788Z,15.10
2023-04-23T00:18:02.816Z,15.10
2023-04-23T00:19:02.798Z,15.10
2023-04-23T00:20:02.775Z,15.10
2023-04-23T00:21:02.832Z,15.10
2023-04-23T00:22:02.830Z,15.20
2023-04-23T00:23:02.903Z,15.10
2023-04-23T00:24:02.938Z,15.10
2023-04-23T00:25:02.884Z,15.10
2023-04-23T00:26:02.914Z,15.10
2023-04-23T00:27:03.090Z,15.10
2023-04-23T00:28:03.091Z,15.10
2023-04-23T00:29:03.174Z,15.10
2023-04-23T00:30:03.227Z,15.10
2023-04-23T00:31:03.257Z,15.10
2023-04-23T00:32:03.465Z,15.10
2023-04-23T00:33:03.258Z,15.10
2023-04-23T00:34:03.355Z,15.10
2023-04-23T00:35:03.300Z,15.10
2023-04-23T00:36:03.283Z,15.10
2023-04-23T00:37:03.343Z,15.10
2023-04-23T00:38:03.350Z,15.10
2023-04-23T00:39:03.286Z,15.10
2023-04-23T00:40:03.491Z,15.00
2023-04-23T00:41:03.522Z,15.00
2023-04-23T00:42:03.584Z,15.00
2023-04-23T00:43:03.609Z,15.00
2023-04-23T00:44:03.596Z,15.00
2023-04-23T00:45:03.619Z,15.00
2023-04-23T00:46:03.685Z,15.00
2023-04-23T00:47:02.711Z,15.00
2023-04-23T00:48:02.853Z,15.00
2023-04-23T00:49:02.953Z,15.00
2023-04-23T00:50:02.986Z,15.00
2023-04-23T00:51:03.033Z,15.00
2023-04-23T00:52:02.979Z,15.00
2023-04-23T00:53:02.916Z,14.90
2023-04-23T00:54:02.996Z,14.90
2023-04-23T00:55:03.058Z,14.90
2023-04-23T00:56:03.116Z,14.90
2023-04-23T00:57:03.278Z,14.90
2023-04-23T00:58:03.192Z,14.90
2023-04-23T00:59:03.204Z,14.90
2023-04-23T01:00:03.259Z,14.90
2023-04-23T01:01:03.219Z,14.90
2023-04-23T01:02:03.567Z,14.90
2023-04-23T01:03:03.560Z,14.90
2023-04-23T01:04:03.739Z,14.90
2023-04-23T01:05:03.643Z,14.90
2023-04-23T01:06:02.656Z,14.90
2023-04-23T01:07:02.714Z,14.90
2023-04-23T01:08:02.758Z,14.90
2023-04-23T01:09:02.925Z,14.90
2023-04-23T01:10:02.887Z,14.90
2023-04-23T01:11:02.829Z,14.90
2023-04-23T01:12:02.880Z,14.90
2023-04-23T01:13:02.964Z,14.90
2023-04-23T01:14:02.861Z,14.90
2023-04-23T01:15:02.809Z,14.90
2023-04-23T01:16:02.917Z,14.90
2023-04-23T01:17:03.020Z,14.90
2023-04-23T01:18:02.909Z,14.90
2023-04-23T01:19:02.862Z,14.90
2023-04-23T01:20:03.012Z,14.90
2023-04-23T01:21:03.090Z,14.90
2023-04-23T01:22:03.228Z,14.90
2023-04-23T01:23:04.194Z,14.90
2023-04-23T01:24:03.281Z,14.90
2023-04-23T01:25:03.338Z,14.90
2023-04-23T01:26:03.427Z,14.90
2023-04-23T01:27:03.591Z,14.90
2023-04-23T01:28:02.766Z,14.90
2023-04-23T01:29:02.759Z,14.90
2023-04-23T01:30:02.708Z,14.90
2023-04-23T01:31:02.824Z,14.90
2023-04-23T01:32:02.855Z,14.90
2023-04-23T01:33:02.969Z,14.90
2023-04-23T01:34:03.018Z,14.90
2023-04-23T01:35:03.112Z,14.90
2023-04-23T01:36:03.124Z,14.90
2023-04-23T01:37:03.186Z,14.90
2023-04-23T01:38:03.386Z,14.90
2023-04-23T01:39:03.410Z,14.90
2023-04-23T01:40:03.418Z,14.90
2023-04-23T01:41:03.326Z,14.90
2023-04-23T01:42:03.488Z,14.90
2023-04-23T01:43:03.409Z,14.90
2023-04-23T01:44:03.367Z,14.90
2023-04-23T01:45:03.383Z,14.90
2023-04-23T01:46:03.404Z,14.80
2023-04-23T01:47:05.083Z,14.80
2023-04-23T01:48:02.814Z,14.80
2023-04-23T01:49:02.789Z,14.80
2023-04-23T01:50:02.817Z,14.80
2023-04-23T01:51:02.830Z,14.80
2023-04-23T01:52:02.891Z,14.80
2023-04-23T01:53:02.949Z,14.80
2023-04-23T01:54:03.070Z,14.80
2023-04-23T01:55:03.085Z,14.80
2023-04-23T01:56:03.115Z,14.80
2023-04-23T01:57:03.160Z,14.80
2023-04-23T01:58:03.151Z,14.80
2023-04-23T01:59:03.150Z,14.80
2023-04-23T02:00:03.225Z,14.80
2023-04-23T02:01:03.288Z,14.80
2023-04-23T02:02:03.859Z,14.80
2023-04-23T02:03:03.607Z,14.80
2023-04-23T02:04:03.296Z,14.80
2023-04-23T02:05:03.330Z,14.80
2023-04-23T02:06:03.335Z,14.80
2023-04-23T02:07:03.415Z,14.80
2023-04-23T02:08:03.450Z,14.80
2023-04-23T02:09:03.487Z,14.80
2023-04-23T02:10:03.550Z,14.70
2023-04-23T02:11:03.641Z,14.70
2023-04-23T02:12:03.535Z,14.70
2023-04-23T02:13:03.613Z,14.70
2023-04-23T02:14:03.580Z,14.70
2023-04-23T02:15:02.881Z,14.70
2023-04-23T02:16:02.909Z,14.70
2023-04-23T02:17:03.046Z,14.70
2023-04-23T02:18:03.082Z,14.70
2023-04-23T02:19:03.178Z,14.70
2023-04-23T02:20:03.186Z,14.70
2023-04-23T02:21:03.639Z,14.70
2023-04-23T02:22:03.587Z,14.70
2023-04-23T02:23:02.703Z,14.70
2023-04-23T02:24:02.754Z,14.70
2023-04-23T02:25:03.156Z,14.70
2023-04-23T02:26:03.136Z,14.70
2023-04-23T02:27:03.267Z,14.70
2023-04-23T02:28:02.694Z,14.70
2023-04-23T02:29:02.702Z,14.70
2023-04-23T02:30:02.786Z,14.70
2023-04-23T02:31:02.828Z,14.70
2023-04-23T02:32:02.947Z,14.70
2023-04-23T02:33:02.895Z,14.70
2023-04-23T02:34:02.944Z,14.70
2023-04-23T02:35:03.055Z,14.70
2023-04-23T02:36:03.213Z,14.70
2023-04-23T02:37:03.150Z,14.70
2023-04-23T02:38:03.202Z,14.60
2023-04-23T02:39:03.230Z,14.70
2023-04-23T02:40:03.267Z,14.60
2023-04-23T02:41:03.344Z,14.70
2023-04-23T02:42:03.548Z,14.60
2023-04-23T02:43:03.474Z,14.60
2023-04-23T02:44:03.517Z,14.60
2023-04-23T02:45:03.544Z,14.70
2023-04-23T02:46:03.540Z,14.60
2023-04-23T02:47:03.609Z,14.60
2023-04-23T02:48:03.636Z,14.60
2023-04-23T02:49:02.757Z,14.60
2023-04-23T02:50:02.782Z,14.60
2023-04-23T02:51:02.720Z,14.70
2023-04-23T02:52:02.688Z,14.60
2023-04-23T02:53:02.814Z,14.60
2023-04-23T02:54:02.749Z,14.60
2023-04-23T02:55:02.693Z,14.60
2023-04-23T02:56:02.739Z,14.60
2023-04-23T02:57:02.708Z,14.60
2023-04-23T02:58:02.668Z,14.60
2023-04-23T02:59:02.772Z,14.60
2023-04-23T03:00:02.701Z,14.60
2023-04-23T03:01:02.912Z,14.60
2023-04-23T03:02:03.030Z,14.60
2023-04-23T03:03:03.094Z,14.60
2023-04-23T03:04:03.019Z,14.60
2023-04-23T03:05:03.009Z,14.60
2023-04-23T03:06:03.062Z,14.60
2023-04-23T03:07:02.997Z,14.60
2023-04-23T03:08:03.134Z,14.60
2023-04-23T03:09:03.171Z,14.60
2023-04-23T03:10:03.339Z,14.60
2023-04-23T03:11:03.317Z,14.60
2023-04-23T03:12:03.367Z,14.60
2023-04-23T03:13:03.303Z,14.60
2023-04-23T03:14:03.387Z,14.60
2023-04-23T03:15:03.467Z,14.60
2023-04-23T03:16:03.562Z,14.60
2023-04-23T03:17:03.597Z,14.50
2023-04-23T03:18:03.561Z,14.50
2023-04-23T03:19:03.563Z,14.50
2023-04-23T03:20:02.826Z,14.50
2023-04-23T03:21:02.844Z,14.50
2023-04-23T03:22:02.814Z,14.50
2023-04-23T03:23:02.890Z,14.50
2023-04-23T03:24:03.008Z,14.50
2023-04-23T03:25:03.174Z,14.50
2023-04-23T03:26:03.264Z,14.50
2023-04-23T03:27:03.238Z,14.50
2023-04-23T03:28:03.303Z,14.50
2023-04-23T03:29:03.265Z,14.50
2023-04-23T03:30:03.302Z,14.50
2023-04-23T03:31:03.449Z,14.50
2023-04-23T03:32:03.341Z,14.40
2023-04-23T03:33:03.406Z,14.40
2023-04-23T03:34:03.409Z,14.40
2023-04-23T03:35:03.380Z,14.40
2023-04-23T03:36:03.476Z,14.40
2023-04-23T03:37:03.426Z,14.40
2023-04-23T03:38:03.540Z,14.40
2023-04-23T03:39:02.623Z,14.40
2023-04-23T03:40:02.726Z,14.40
2023-04-23T03:41:02.759Z,14.40
2023-04-23T03:42:02.788Z,14.40
2023-04-23T03:43:02.655Z,14.40
2023-04-23T03:44:02.806Z,14.40
2023-04-23T03:45:02.849Z,14.40
2023-04-23T03:46:02.901Z,14.40
2023-04-23T03:47:02.865Z,14.40
2023-04-23T03:48:02.868Z,14.40
2023-04-23T03:49:03.022Z,14.40
2023-04-23T03:50:02.954Z,14.40
2023-04-23T03:51:02.960Z,14.40
2023-04-23T03:52:02.916Z,14.40
2023-04-23T03:53:02.933Z,14.30
2023-04-23T03:54:03.102Z,14.30
2023-04-23T03:55:03.140Z,14.30
2023-04-23T03:56:03.245Z,14.30
2023-04-23T03:57:03.307Z,14.30
2023-04-23T03:58:03.324Z,14.30
2023-04-23T03:59:03.329Z,14.30
2023-04-23T04:00:03.360Z,14.30
2023-04-23T04:01:03.386Z,14.30
2023-04-23T04:02:03.452Z,14.30
2023-04-23T04:03:03.474Z,14.30
2023-04-23T04:04:03.808Z,14.30
2023-04-23T04:05:03.833Z,14.30
2023-04-23T04:06:03.460Z,14.30
2023-04-23T04:07:03.485Z,14.30
2023-04-23T04:08:03.624Z,14.20
2023-04-23T04:09:02.618Z,14.20
2023-04-23T04:10:02.829Z,14.30
2023-04-23T04:11:02.744Z,14.20
2023-04-23T04:12:02.799Z,14.20
2023-04-23T04:13:02.829Z,14.30
2023-04-23T04:14:02.898Z,14.20
2023-04-23T04:15:03.012Z,14.20
2023-04-23T04:16:03.004Z,14.20
2023-04-23T04:17:03.160Z,14.30
2023-04-23T04:18:03.180Z,14.20
2023-04-23T04:19:03.184Z,14.20
2023-04-23T04:20:03.224Z,14.30
2023-04-23T04:21:03.303Z,14.20
2023-04-23T04:22:03.294Z,14.20
2023-04-23T04:23:03.405Z,14.20
2023-04-23T04:24:03.320Z,14.20
2023-04-23T04:25:03.626Z,14.20
2023-04-23T04:26:03.586Z,14.20
2023-04-23T04:27:02.850Z,14.20
2023-04-23T04:28:02.915Z,14.20
2023-04-23T04:29:02.926Z,14.20
2023-04-23T04:30:03.566Z,14.20
2023-04-23T04:31:02.941Z,14.20
2023-04-23T04:32:03.835Z,14.20
2023-04-23T04:33:03.360Z,14.20
2023-04-23T04:34:03.312Z,14.20
2023-04-23T04:35:03.415Z,14.20
2023-04-23T04:36:03.474Z,14.20
2023-04-23T04:37:03.205Z,14.20
2023-04-23T04:38:03.259Z,14.20
2023-04-23T04:39:03.235Z,14.20
2023-04-23T04:40:03.504Z,14.10
2023-04-23T04:41:03.515Z,14.10
2023-04-23T04:42:03.526Z,14.10
2023-04-23T04:43:03.504Z,14.10
2023-04-23T04:44:03.552Z,14.10
2023-04-23T04:45:02.774Z,14.10
2023-04-23T04:46:02.966Z,14.10
2023-04-23T04:47:02.925Z,14.10
2023-04-23T04:48:02.897Z,14.10
2023-04-23T04:49:03.210Z,14.10
2023-04-23T04:50:03.191Z,14.10
2023-04-23T04:51:03.276Z,14.10
2023-04-23T04:52:03.452Z,14.10
2023-04-23T04:53:03.422Z,14.10
2023-04-23T04:54:03.437Z,14.10
2023-04-23T04:55:03.535Z,14.10
2023-04-23T04:56:03.658Z,14.10
2023-04-23T04:57:02.742Z,14.00
2023-04-23T04:58:02.653Z,14.00
2023-04-23T04:59:02.823Z,14.00
2023-04-23T05:00:02.794Z,14.00
2023-04-23T05:01:02.888Z,14.00
2023-04-23T05:02:02.754Z,14.00
2023-04-23T05:03:02.712Z,14.00
2023-04-23T05:04:02.959Z,14.00
2023-04-23T05:05:02.804Z,14.00
2023-04-23T05:06:02.969Z,14.00
2023-04-23T05:07:02.910Z,14.00
2023-04-23T05:08:02.949Z,14.00
2023-04-23T05:09:02.885Z,14.00
2023-04-23T05:10:02.912Z,14.00
2023-04-23T05:11:03.090Z,14.00
2023-04-23T05:12:03.008Z,14.00
2023-04-23T05:13:02.940Z,14.00
2023-04-23T05:14:03.035Z,14.00
2023-04-23T05:15:03.074Z,14.00
2023-04-23T05:16:02.957Z,14.00
2023-04-23T05:17:03.097Z,14.00
2023-04-23T05:18:03.249Z,14.00
2023-04-23T05:19:03.386Z,14.00
2023-04-23T05:20:03.345Z,14.00
2023-04-23T05:21:03.249Z,14.00
2023-04-23T05:22:03.443Z,14.00
2023-04-23T05:23:03.373Z,14.00
2023-04-23T05:24:03.477Z,14.00
2023-04-23T05:25:03.407Z,14.00
2023-04-23T05:26:03.416Z,14.00
2023-04-23T05:27:03.530Z,14.00
2023-04-23T05:28:03.493Z,14.00
2023-04-23T05:29:03.454Z,14.00
2023-04-23T05:30:03.530Z,14.00
2023-04-23T05:31:03.546Z,14.00
2023-04-23T05:32:03.578Z,14.00
2023-04-23T05:33:03.608Z,14.00
2023-04-23T05:34:03.653Z,14.00
2023-04-23T05:35:02.761Z,14.00
2023-04-23T05:36:02.659Z,14.00
2023-04-23T05:37:03.740Z,14.00
2023-04-23T05:38:02.752Z,14.00
2023-04-23T05:39:02.680Z,14.00
2023-04-23T05:40:02.719Z,14.00
2023-04-23T05:41:02.796Z,14.00
2023-04-23T05:42:02.852Z,14.00
2023-04-23T05:43:02.807Z,14.00
2023-04-23T05:44:02.810Z,14.00
2023-04-23T05:45:02.844Z,14.00
2023-04-23T05:46:02.854Z,14.00
2023-04-23T05:47:02.920Z,14.00
2023-04-23T05:48:02.952Z,14.00
2023-04-23T05:49:03.316Z,14.00
2023-04-23T05:50:03.229Z,14.00
2023-04-23T05:51:03.260Z,14.00
2023-04-23T05:52:03.314Z,14.00
2023-04-23T05:53:03.372Z,14.00
2023-04-23T05:54:03.297Z,14.00
2023-04-23T05:55:03.347Z,14.00
2023-04-23T05:56:03.275Z,14.00
2023-04-23T05:57:03.332Z,14.00
2023-04-23T05:58:03.294Z,14.00
2023-04-23T05:59:03.415Z,14.00
2023-04-23T06:00:03.557Z,14.00
2023-04-23T06:01:03.564Z,14.00
2023-04-23T06:02:03.565Z,14.00
2023-04-23T06:03:03.607Z,14.00
2023-04-23T06:04:03.695Z,14.10
2023-04-23T06:05:03.785Z,14.10
2023-04-23T06:06:03.646Z,14.10
2023-04-23T06:07:02.660Z,14.10
2023-04-23T06:08:02.689Z,14.10
2023-04-23T06:09:02.884Z,14.10
2023-04-23T06:10:02.917Z,14.10
2023-04-23T06:11:02.890Z,14.20
2023-04-23T06:12:02.880Z,14.20
2023-04-23T06:13:02.942Z,14.20
2023-04-23T06:14:03.001Z,14.20
2023-04-23T06:15:03.027Z,14.20
2023-04-23T06:16:03.047Z,14.20
2023-04-23T06:17:03.110Z,14.20
2023-04-23T06:18:03.109Z,14.20
2023-04-23T06:19:02.968Z,14.30
2023-04-23T06:20:03.034Z,14.30
2023-04-23T06:21:03.080Z,14.30
2023-04-23T06:22:02.982Z,14.30
2023-04-23T06:23:03.065Z,14.30
2023-04-23T06:24:03.107Z,14.40
2023-04-23T06:25:03.171Z,14.40
2023-04-23T06:26:03.097Z,14.40
2023-04-23T06:27:03.011Z,14.40
2023-04-23T06:28:03.545Z,14.40
2023-04-23T06:29:03.632Z,14.40
2023-04-23T06:30:03.630Z,14.40
2023-04-23T06:31:03.609Z,14.50
2023-04-23T06:32:03.672Z,14.50
2023-04-23T06:33:03.527Z,14.50
2023-04-23T06:34:03.448Z,14.50
2023-04-23T06:35:03.709Z,14.50
2023-04-23T06:36:03.540Z,14.60
2023-04-23T06:37:03.475Z,14.60
2023-04-23T06:38:03.418Z,14.60
2023-04-23T06:39:03.383Z,14.70
2023-04-23T06:40:03.446Z,14.70
2023-04-23T06:41:03.573Z,14.70
2023-04-23T06:42:03.472Z,14.70
2023-04-23T06:43:03.641Z,14.80
2023-04-23T06:44:03.625Z,14.80
2023-04-23T06:45:04.218Z,14.80
2023-04-23T06:46:02.766Z,14.90
2023-04-23T06:47:02.798Z,14.90
2023-04-23T06:48:02.684Z,14.90
2023-04-23T06:49:02.695Z,14.90
2023-04-23T06:50:02.765Z,14.90
2023-04-23T06:51:02.762Z,15.00
2023-04-23T06:52:03.192Z,15.00
2023-04-23T06:53:04.216Z,15.00
2023-04-23T06:54:03.179Z,15.00
2023-04-23T06:55:03.250Z,15.00
2023-04-23T06:56:03.286Z,15.00
2023-04-23T06:57:03.453Z,15.00
2023-04-23T06:58:03.498Z,15.00
2023-04-23T06:59:03.428Z,15.00
2023-04-23T07:00:03.620Z,15.00
2023-04-23T07:01:03.575Z,15.00
2023-04-23T07:02:03.591Z,15.00
2023-04-23T07:03:02.795Z,15.00
2023-04-23T07:04:02.675Z,15.00
2023-04-23T07:05:02.758Z,15.00
2023-04-23T07:06:03.173Z,15.00
2023-04-23T07:07:03.196Z,15.00
2023-04-23T07:08:03.393Z,15.00
2023-04-23T07:09:03.267Z,15.00
2023-04-23T07:10:03.187Z,15.00
2023-04-23T07:11:03.248Z,15.00
2023-04-23T07:12:03.334Z,14.90
2023-04-23T07:13:03.323Z,14.90
2023-04-23T07:14:03.363Z,14.90
2023-04-23T07:15:03.467Z,14.90
2023-04-23T07:16:03.487Z,14.90
2023-04-23T07:17:03.558Z,14.90
2023-04-23T07:18:03.621Z,14.90
2023-04-23T07:19:03.538Z,14.80
2023-04-23T07:20:03.496Z,14.80
2023-04-23T07:21:03.553Z,14.80
2023-04-23T07:22:02.673Z,14.80
2023-04-23T07:23:03.640Z,14.80
2023-04-23T07:24:03.619Z,14.70
2023-04-23T07:25:02.662Z,14.70
2023-04-23T07:26:02.760Z,14.70
2023-04-23T07:27:02.869Z,14.70
2023-04-23T07:28:02.800Z,14.70
2023-04-23T07:29:02.835Z,14.60
2023-04-23T07:30:02.847Z,14.60
2023-04-23T07:31:02.793Z,14.50
2023-04-23T07:32:02.763Z,14.40
2023-04-23T07:33:02.975Z,14.30
2023-04-23T07:34:02.990Z,14.30
2023-04-23T07:35:02.920Z,14.20
2023-04-23T07:36:02.880Z,14.10
2023-04-23T07:37:02.767Z,14.00
2023-04-23T07:38:02.746Z,13.90
2023-04-23T07:39:02.830Z,13.80
2023-04-23T07:40:02.867Z,13.70
2023-04-23T07:41:02.843Z,13.70
2023-04-23T07:42:03.352Z,13.60
2023-04-23T07:43:03.461Z,13.60
2023-04-23T07:44:03.519Z,13.50
2023-04-23T07:45:03.530Z,13.40
2023-04-23T07:46:03.493Z,13.40
2023-04-23T07:47:03.498Z,13.40
2023-04-23T07:48:02.709Z,13.30
2023-04-23T07:49:02.861Z,13.30
2023-04-23T07:50:02.771Z,13.30
2023-04-23T07:51:03.285Z,13.30
2023-04-23T07:52:03.200Z,13.20
2023-04-23T07:53:03.199Z,13.20
2023-04-23T07:54:03.287Z,13.20
2023-04-23T07:55:03.364Z,13.20
2023-04-23T07:56:03.326Z,13.20
2023-04-23T07:57:03.622Z,13.20
2023-04-23T07:58:03.693Z,13.20
2023-04-23T07:59:02.844Z,13.10
2023-04-23T08:00:03.583Z,13.10
2023-04-23T08:01:03.542Z,13.10
2023-04-23T08:02:03.608Z,13.10
2023-04-23T08:03:03.708Z,13.10
2023-04-23T08:04:03.870Z,13.10
2023-04-23T08:05:03.566Z,13.10
2023-04-23T08:06:03.625Z,13.00
2023-04-23T08:07:03.501Z,13.10
2023-04-23T08:08:05.434Z,13.00
2023-04-23T08:09:03.495Z,13.10
2023-04-23T08:10:03.561Z,13.00
2023-04-23T08:11:02.694Z,13.00
2023-04-23T08:12:02.771Z,13.10
2023-04-23T08:13:02.823Z,13.00
2023-04-23T08:14:03.029Z,13.10
2023-04-23T08:15:03.193Z,13.10
2023-04-23T08:16:03.022Z,13.10
2023-04-23T08:17:03.209Z,13.10
2023-04-23T08:18:03.248Z,13.00
2023-04-23T08:19:05.839Z,13.00
2023-04-23T08:20:03.229Z,13.00
2023-04-23T08:21:03.269Z,13.00
2023-04-23T08:22:03.170Z,13.00
2023-04-23T08:23:03.124Z,13.00
2023-04-23T08:24:03.259Z,13.00
2023-04-23T08:25:03.148Z,13.10
2023-04-23T08:26:03.065Z,13.10
2023-04-23T08:27:03.084Z,13.10
2023-04-23T08:28:03.100Z,13.10
2023-04-23T08:29:03.062Z,13.10
2023-04-23T08:30:03.112Z,13.10
2023-04-23T08:31:09.508Z,13.10
2023-04-23T08:32:03.265Z,13.10
2023-04-23T08:33:03.239Z,13.20
2023-04-23T08:34:03.137Z,13.20
2023-04-23T08:35:03.220Z,13.20
2023-04-23T08:36:03.140Z,13.20
2023-04-23T08:37:03.287Z,13.20
2023-04-23T08:38:03.270Z,13.20
2023-04-23T08:39:03.241Z,13.20
2023-04-23T08:40:03.236Z,13.20
2023-04-23T08:41:03.325Z,13.20
2023-04-23T08:42:03.301Z,13.20
2023-04-23T08:43:02.758Z,13.20
2023-04-23T08:44:03.168Z,13.20
2023-04-23T08:45:03.352Z,13.30
2023-04-23T08:46:03.290Z,13.30
2023-04-23T08:47:03.358Z,13.40
2023-04-23T08:48:03.181Z,13.50
2023-04-23T08:49:03.324Z,13.50
2023-04-23T08:50:03.281Z,13.60
2023-04-23T08:51:03.249Z,13.60
2023-04-23T08:52:03.372Z,13.70
2023-04-23T08:53:03.477Z,13.80
2023-04-23T08:54:03.329Z,13.80
2023-04-23T08:55:03.324Z,13.90
2023-04-23T08:56:03.382Z,14.00
2023-04-23T08:57:03.382Z,14.00
2023-04-23T08:58:03.325Z,14.00
2023-04-23T08:59:03.423Z,14.10
2023-04-23T09:00:03.444Z,14.10
2023-04-23T09:01:03.603Z,14.20
2023-04-23T09:02:02.746Z,14.20
2023-04-23T09:03:03.053Z,14.30
2023-04-23T09:04:02.904Z,14.40
2023-04-23T09:05:02.853Z,14.50
2023-04-23T09:06:02.829Z,14.50
2023-04-23T09:07:02.909Z,14.60
2023-04-23T09:08:02.974Z,14.70
2023-04-23T09:09:03.014Z,14.70
2023-04-23T09:10:03.070Z,14.80
2023-04-23T09:11:03.042Z,14.90
2023-04-23T09:12:03.128Z,15.00
2023-04-23T09:13:03.299Z,15.10
2023-04-23T09:14:03.195Z,15.20
2023-04-23T09:15:03.152Z,15.30
2023-04-23T09:16:03.190Z,15.30
2023-04-23T09:17:03.054Z,15.40
2023-04-23T09:18:03.086Z,15.50
2023-04-23T09:19:03.214Z,15.60
2023-04-23T09:20:03.122Z,15.70
2023-04-23T09:21:03.111Z,15.70
2023-04-23T09:22:03.227Z,15.80
2023-04-23T09:23:03.186Z,15.90
2023-04-23T09:24:03.304Z,15.90
2023-04-23T09:25:03.255Z,16.00
2023-04-23T09:26:03.377Z,16.00
2023-04-23T09:27:03.305Z,16.10
2023-04-23T09:28:03.430Z,16.10
2023-04-23T09:29:03.447Z,16.20
2023-04-23T09:30:03.374Z,16.20
2023-04-23T09:31:03.460Z,16.20
2023-04-23T09:32:03.688Z,16.20
2023-04-23T09:33:02.779Z,16.30
2023-04-23T09:34:02.767Z,16.30
2023-04-23T09:35:02.899Z,16.40
2023-04-23T09:36:02.883Z,16.40
2023-04-23T09:37:02.974Z,16.40
2023-04-23T09:38:03.044Z,16.40
2023-04-23T09:39:03.113Z,16.40
2023-04-23T09:40:03.189Z,16.50
2023-04-23T09:41:03.263Z,16.40
2023-04-23T09:42:03.197Z,16.40
2023-04-23T09:43:03.104Z,16.50
2023-04-23T09:44:03.296Z,16.50
2023-04-23T09:45:03.214Z,16.60
2023-04-23T09:46:03.422Z,16.60
2023-04-23T09:47:03.411Z,16.70
2023-04-23T09:48:03.416Z,16.80
2023-04-23T09:49:03.358Z,16.80
2023-04-23T09:50:03.403Z,16.90
2023-04-23T09:51:03.559Z,17.00
2023-04-23T09:52:03.740Z,17.00
2023-04-23T09:53:02.647Z,17.10
2023-04-23T09:54:03.088Z,17.10
2023-04-23T09:55:03.003Z,17.20
2023-04-23T09:56:03.021Z,17.30
2023-04-23T09:57:03.099Z,17.40
2023-04-23T09:58:03.165Z,17.40
2023-04-23T09:59:03.181Z,17.50
2023-04-23T10:00:11.311Z,17.60
2023-04-23T10:01:03.349Z,17.60
2023-04-23T10:02:03.415Z,17.70
2023-04-23T10:03:03.437Z,17.70
2023-04-23T10:04:03.493Z,17.70
2023-04-23T10:05:14.537Z,17.80
2023-04-23T10:06:03.621Z,17.80
2023-04-23T10:08:03.401Z,17.90
2023-04-23T10:09:03.454Z,17.90
2023-04-23T10:10:03.551Z,18.00
2023-04-23T10:11:13.994Z,18.00
2023-04-23T10:12:02.697Z,18.00
2023-04-23T10:13:02.686Z,18.00
2023-04-23T10:14:02.863Z,18.10
2023-04-23T10:15:02.923Z,18.10
2023-04-23T10:16:14.380Z,18.20
2023-04-23T10:17:03.003Z,18.20
2023-04-23T10:18:03.088Z,18.30
2023-04-23T10:19:03.183Z,18.30
2023-04-23T10:20:03.218Z,18.30
2023-04-23T10:21:03.144Z,18.40
2023-04-23T10:22:18.345Z,18.40
2023-04-23T10:23:03.227Z,18.40
2023-04-23T10:24:03.342Z,18.40
2023-04-23T10:25:03.284Z,18.50
2023-04-23T10:26:03.337Z,18.50
2023-04-23T10:27:03.330Z,18.60
2023-04-23T10:28:03.371Z,18.60
2023-04-23T10:29:03.408Z,18.60
2023-04-23T10:30:05.576Z,18.70
2023-04-23T10:31:03.488Z,18.70
2023-04-23T10:32:03.555Z,18.80
2023-04-23T10:33:03.573Z,18.80
2023-04-23T10:34:03.616Z,18.90
2023-04-23T10:35:02.669Z,18.90
2023-04-23T10:36:02.744Z,18.90
2023-04-23T10:37:02.900Z,19.00
2023-04-23T10:38:02.888Z,19.00
2023-04-23T10:39:02.957Z,19.10
2023-04-23T10:40:02.822Z,19.10
2023-04-23T10:41:02.875Z,19.10
2023-04-23T10:42:02.932Z,19.10
2023-04-23T10:43:02.922Z,19.20
2023-04-23T10:44:02.967Z,19.20
2023-04-23T10:45:10.267Z,19.20
2023-04-23T10:46:03.145Z,19.20
2023-04-23T10:47:02.980Z,19.30
2023-04-23T10:48:03.159Z,19.30
2023-04-23T10:49:03.036Z,19.30
2023-04-23T10:50:03.812Z,19.40
2023-04-23T10:51:19.153Z,19.40
2023-04-23T10:53:02.711Z,19.50
2023-04-23T10:54:02.657Z,19.50
2023-04-23T10:55:03.641Z,19.60
2023-04-23T10:56:02.902Z,19.60
2023-04-23T10:57:02.931Z,19.60
2023-04-23T10:58:03.217Z,19.60
2023-04-23T10:59:02.845Z,19.60
2023-04-23T11:00:02.853Z,19.70
2023-04-23T11:01:02.765Z,19.70
2023-04-23T11:02:02.832Z,19.70
2023-04-23T11:03:02.864Z,19.70
2023-04-23T11:04:02.938Z,19.70
2023-04-23T11:05:02.953Z,19.70
2023-04-23T11:06:02.787Z,19.70
2023-04-23T11:07:02.900Z,19.70
2023-04-23T11:08:08.247Z,19.70
2023-04-23T11:09:02.912Z,19.70
2023-04-23T11:10:03.078Z,19.70
2023-04-23T11:11:03.010Z,19.70
2023-04-23T11:12:03.221Z,19.70
2023-04-23T11:13:03.222Z,19.80
2023-04-23T11:14:03.123Z,19.80
2023-04-23T11:15:03.084Z,19.80
2023-04-23T11:16:03.280Z,19.80
2023-04-23T11:17:03.387Z,19.80
2023-04-23T11:18:03.504Z,19.80
2023-04-23T11:19:03.516Z,19.80
2023-04-23T11:20:03.458Z,19.70
2023-04-23T11:21:03.640Z,19.70
2023-04-23T11:22:03.466Z,19.70
2023-04-23T11:23:03.551Z,19.70
2023-04-23T11:24:03.620Z,19.70
2023-04-23T11:25:02.667Z,19.70
2023-04-23T11:26:03.600Z,19.70
2023-04-23T11:27:02.793Z,19.70
2023-04-23T11:28:02.616Z,19.70
2023-04-23T11:29:02.800Z,19.70
2023-04-23T11:30:02.797Z,19.70
2023-04-23T11:31:02.760Z,19.70
2023-04-23T11:32:03.800Z,19.70
2023-04-23T11:33:02.959Z,19.70
2023-04-23T11:34:02.846Z,19.70
2023-04-23T11:35:02.960Z,19.70
2023-04-23T11:36:02.879Z,19.80
2023-04-23T11:37:03.586Z,19.80
2023-04-23T11:38:02.942Z,19.90
2023-04-23T11:39:03.049Z,19.90
2023-04-23T11:40:02.941Z,20.00
2023-04-23T11:41:03.032Z,20.10
2023-04-23T11:42:02.891Z,20.10
2023-04-23T11:43:02.895Z,20.20
2023-04-23T11:44:02.712Z,20.20
2023-04-23T11:45:02.816Z,20.20
2023-04-23T11:46:02.915Z,20.20
2023-04-23T11:47:02.918Z,20.20
2023-04-23T11:48:02.805Z,20.20
2023-04-23T11:49:02.814Z,20.20
2023-04-23T11:50:02.879Z,20.10
2023-04-23T11:51:02.820Z,20.10
2023-04-23T11:52:02.734Z,20.00
2023-04-23T11:53:02.710Z,20.00
2023-04-23T11:54:02.715Z,20.00
2023-04-23T11:55:02.788Z,19.90
2023-04-23T11:56:02.931Z,19.90
2023-04-23T11:57:02.831Z,19.80
2023-04-23T11:58:02.842Z,19.80
2023-04-23T11:59:02.970Z,19.80
2023-04-23T12:00:02.980Z,19.80
2023-04-23T12:01:03.373Z,19.80
2023-04-23T12:02:03.588Z,19.80
2023-04-23T12:03:02.822Z,19.80
2023-04-23T12:04:02.843Z,19.90
2023-04-23T12:05:02.896Z,19.90
2023-04-23T12:06:02.914Z,20.00
2023-04-23T12:07:07.917Z,20.00
2023-04-23T12:08:02.991Z,20.10
2023-04-23T12:09:02.977Z,20.10
2023-04-23T12:10:03.050Z,20.10
2023-04-23T12:11:03.056Z,20.10
2023-04-23T12:12:03.000Z,20.10
2023-04-23T12:13:02.884Z,20.10
2023-04-23T12:14:03.119Z,20.10
2023-04-23T12:15:03.059Z,20.10
2023-04-23T12:16:03.233Z,20.00
2023-04-23T12:17:03.137Z,20.00
2023-04-23T12:18:03.306Z,20.00
2023-04-23T12:19:03.202Z,20.00
2023-04-23T12:20:03.129Z,19.90
2023-04-23T12:21:03.140Z,19.90
2023-04-23T12:22:03.334Z,19.90
2023-04-23T12:23:03.393Z,19.90
2023-04-23T12:24:03.481Z,19.80
2023-04-23T12:25:03.491Z,19.80
2023-04-23T12:26:03.139Z,19.80
2023-04-23T12:27:03.616Z,19.90
2023-04-23T12:28:03.494Z,19.90
2023-04-23T12:29:03.489Z,20.00
2023-04-23T12:30:04.196Z,20.00
2023-04-23T12:31:02.768Z,20.00
2023-04-23T12:32:02.791Z,20.00
2023-04-23T12:33:02.941Z,20.00
2023-04-23T12:34:03.015Z,20.00
2023-04-23T12:35:03.021Z,20.00
2023-04-23T12:36:03.003Z,20.10
2023-04-23T12:37:03.031Z,20.10
2023-04-23T12:38:03.011Z,20.10
2023-04-23T12:39:03.161Z,20.20
2023-04-23T12:40:03.244Z,20.20
2023-04-23T12:41:03.361Z,20.20
2023-04-23T12:42:03.460Z,20.20
2023-04-23T12:43:03.517Z,20.20
2023-04-23T12:44:03.394Z,20.20
2023-04-23T12:45:03.496Z,20.30
2023-04-23T12:46:03.661Z,20.30
2023-04-23T12:47:03.669Z,20.30
2023-04-23T12:48:03.528Z,20.40
2023-04-23T12:49:03.536Z,20.40
2023-04-23T12:50:03.513Z,20.40
2023-04-23T12:51:03.553Z,20.40
2023-04-23T12:52:03.588Z,20.50
2023-04-23T12:53:03.510Z,20.50
2023-04-23T12:54:03.617Z,20.50